Terminal Aerodrome Forecast
Issued by NWS

Current Version | Previous Version | Text Only | Print | Product List | Glossary Off
Versions: 1 2 3 4 5 6 7 8 9 10 11 12 13 14 15 16 17

809
FTUS41 KPBZ 202058 AAA
TAFHLG
TAF AMD
KHLG 202058Z 2021/2118 21010G18KT P6SM SKC
     FM210000 20007KT P6SM SKC
     FM210800 20007KT P6SM SKC WS020/23040KT
     FM211500 21010G18KT P6SM SCT150=

USA.gov is the U.S. government's official web portal to all federal, state and local government web resources and services.